Terminal Aerodrome Forecast
Issued by NWS Sioux Falls, SD

Home | Current Version | Previous Version | Text Only | Print | Product List | Glossary On
Versions: 1 2 3 4 5 6 7 8 9 10 11 12 13 14 15 16 17 18 19 20 21 22 23
417
FTUS43 KFSD 110524
TAFFSD
TAF
KFSD 110524Z 1106/1206 07006KT P6SM OVC025
     FM111100 13006KT P6SM OVC015
     FM111600 14004KT P6SM -SN OVC015
     FM111800 17010KT 2SM -SN BR OVC008
     FM112300 10007KT P6SM OVC015
     FM120300 33005KT P6SM OVC025=

USA.gov is the U.S. government's official web portal to all federal, state and local government web resources and services.